Time;durP1;ratioP1;P1;durP2;ratioP2;P2;SDS_P1;SDS_P2;PMS_P1;PMS_P2;Temp;Humidity;BMP_temperature;BMP_pressure;BME280_temperature;BME280_humidity;BME280_pressure;Samples;Min_cycle;Max_cycle;Signal;HPM_P1;HPM_P2
2024/02/06 02:09:52;;;;;;;6.00;3.85;;;;;;;;;;6102008;23;20104;31
2024/02/06 02:40:11;;;;;;;9.35;4.53;;;;;;;;;;6106242;23;20226;31
2024/02/06 06:35:17;;;;;;;6.68;1.83;;;;;;;;;;6068021;23;20416;31
2024/02/06 06:46:11;;;;;;;8.20;5.57;;;;;;;;;;6075665;23;20227;-88
2024/02/06 06:49:01;;;;;;;8.90;7.55;;;;;;;;;;6112418;23;20045;-90
2024/02/06 07:12:19;;;;;;;9.77;7.53;;;;;;;;;;6082831;23;20207;-90
2024/02/06 07:23:41;;;;;;;9.95;7.30;;;;;;;;;;6090383;23;20017;-92
2024/02/06 07:47:10;;;;;;;10.63;2.85;;;;;;;;;;6101943;23;20029;-88
2024/02/06 08:05:11;;;;;;;6.43;2.40;;;;;;;;;;6104641;23;20022;-93
2024/02/06 08:10:10;;;;;;;12.55;3.08;;;;;;;;;;6130747;23;20049;-92
2024/02/06 08:12:36;;;;;;;6.57;2.30;;;;;;;;;;6107784;23;20037;-90
2024/02/06 08:15:04;;;;;;;6.50;2.00;;;;;;;;;;6105491;23;20040;-89
2024/02/06 08:17:42;;;;;;;7.55;2.10;;;;;;;;;;6109255;23;20006;-92
2024/02/06 08:20:09;;;;;;;6.35;2.00;;;;;;;;;;6111807;23;20018;-92
2024/02/06 08:22:36;;;;;;;6.40;1.88;;;;;;;;;;6113979;23;19990;-96
2024/02/06 08:31:04;;;;;;;26.90;2.95;;;;;;;;;;6124824;23;20025;-92
2024/02/06 08:36:32;;;;;;;5.40;2.25;;;;;;;;;;6127642;23;20022;-96
2024/02/06 08:42:14;;;;;;;7.25;2.40;;;;;;;;;;6135833;23;20012;-96
2024/02/06 08:45:05;;;;;;;6.65;2.60;;;;;;;;;;6130828;23;20002;-96
2024/02/06 08:47:50;;;;;;;8.80;2.00;;;;;;;;;;6128936;23;20022;-96
2024/02/06 08:50:33;;;;;;;7.57;2.17;;;;;;;;;;6130639;23;20006;-95
2024/02/06 08:53:25;;;;;;;;;;;;;;;;;;;;;
2024/02/06 09:08:32;;;;;;;6.75;2.78;;;;;;;;;;6132961;23;20052;-94
2024/02/06 09:11:30;;;;;;;9.57;2.88;;;;;;;;;;6140303;23;20077;-96
2024/02/06 09:22:43;;;;;;;9.63;5.10;;;;;;;;;;6103088;23;20409;-91
2024/02/06 09:25:10;;;;;;;9.82;7.00;;;;;;;;;;6102880;23;20034;-89
2024/02/06 09:28:03;;;;;;;9.20;7.75;;;;;;;;;;6077767;23;20015;-93
2024/02/06 09:30:51;;;;;;;8.88;7.93;;;;;;;;;;6109588;23;20066;-96
2024/02/06 09:38:41;;;;;;;11.20;7.60;;;;;;;;;;6123917;23;20052;-96
2024/02/06 09:41:09;;;;;;;10.23;7.53;;;;;;;;;;6141201;23;20335;-94
2024/02/06 09:46:59;;;;;;;10.55;9.45;;;;;;;;;;6133300;23;20049;-93
2024/02/06 09:49:37;;;;;;;12.07;8.68;;;;;;;;;;6107460;23;20038;-94
2024/02/06 09:52:23;;;;;;;12.02;10.07;;;;;;;;;;6108681;23;20073;-93
2024/02/06 10:04:24;;;;;;;11.35;8.55;;;;;;;;;;6139925;23;20028;-96
2024/02/06 11:01:21;;;;;;;15.23;13.88;;;;;;;;;;6119345;23;20087;-92
2024/02/06 11:13:15;;;;;;;20.83;18.88;;;;;;;;;;6093986;23;20161;-90
2024/02/06 11:15:54;;;;;;;22.85;20.80;;;;;;;;;;6099605;23;20328;-90
2024/02/06 11:18:42;;;;;;;23.02;21.02;;;;;;;;;;6099356;23;20020;-95
2024/02/06 11:21:15;;;;;;;20.10;18.25;;;;;;;;;;6162885;23;20257;-88
2024/02/06 11:26:34;;;;;;;19.15;16.17;;;;;;;;;;6188646;23;20023;-95
2024/02/06 11:29:26;;;;;;;20.02;18.30;;;;;;;;;;6162902;23;20008;-95
2024/02/06 11:35:00;;;;;;;19.10;16.92;;;;;;;;;;6105060;23;20073;-94
2024/02/06 11:37:27;;;;;;;22.60;20.48;;;;;;;;;;6076135;23;20002;-89
2024/02/06 11:40:11;;;;;;;19.63;17.90;;;;;;;;;;6074083;23;20053;-94
2024/02/06 11:43:01;;;;;;;20.10;18.17;;;;;;;;;;6075621;23;20006;-96
2024/02/06 11:45:31;;;;;;;18.38;16.75;;;;;;;;;;6069418;23;20002;-90
2024/02/06 11:48:01;;;;;;;19.20;17.75;;;;;;;;;;6073940;23;20034;-94
2024/02/06 11:50:46;;;;;;;17.08;15.40;;;;;;;;;;6073915;23;20007;-95
2024/02/06 11:53:22;;;;;;;18.17;16.58;;;;;;;;;;6078039;23;20014;-95
2024/02/06 11:56:07;;;;;;;20.50;18.85;;;;;;;;;;6123863;23;20021;-91
2024/02/06 11:58:44;;;;;;;19.30;17.55;;;;;;;;;;6120795;23;20002;-96
2024/02/06 12:01:42;;;;;;;21.65;19.63;;;;;;;;;;6103653;23;20089;-90
2024/02/06 12:04:09;;;;;;;19.85;17.95;;;;;;;;;;6108248;23;20010;-92
2024/02/06 12:07:03;;;;;;;22.48;20.10;;;;;;;;;;6105489;23;20021;-96
2024/02/06 12:09:42;;;;;;;17.90;16.00;;;;;;;;;;6104014;23;20385;-96
2024/02/06 12:18:52;;;;;;;18.80;16.85;;;;;;;;;;6012860;23;20019;-96
2024/02/06 12:21:54;;;;;;;19.17;17.42;;;;;;;;;;6104913;23;20065;-92
2024/02/06 12:24:20;;;;;;;21.73;19.70;;;;;;;;;;6020202;23;20438;-92
2024/02/06 12:26:49;;;;;;;19.50;17.67;;;;;;;;;;6089845;23;20021;-92
2024/02/06 12:29:17;;;;;;;16.67;15.10;;;;;;;;;;6102877;23;20062;-90
2024/02/06 12:31:43;;;;;;;20.25;18.33;;;;;;;;;;6105765;23;20336;-90
2024/02/06 12:34:10;;;;;;;21.85;17.77;;;;;;;;;;6129223;23;20049;-90
2024/02/06 12:36:37;;;;;;;20.10;18.10;;;;;;;;;;6103693;23;20013;-92
2024/02/06 12:39:12;;;;;;;19.23;16.15;;;;;;;;;;6105975;23;20025;-91
2024/02/06 12:41:39;;;;;;;21.73;19.45;;;;;;;;;;6104491;23;20010;-91
2024/02/06 12:44:05;;;;;;;16.75;15.18;;;;;;;;;;6103138;23;20379;-89
2024/02/06 12:46:31;;;;;;;19.35;17.73;;;;;;;;;;6103485;23;20104;-90
2024/02/06 12:48:57;;;;;;;19.10;17.00;;;;;;;;;;6103696;23;20340;-91
2024/02/06 12:51:24;;;;;;;19.88;16.25;;;;;;;;;;6132809;23;20013;-90
2024/02/06 12:53:50;;;;;;;21.13;19.27;;;;;;;;;;6105551;23;19990;-90
2024/02/06 12:56:16;;;;;;;17.85;16.40;;;;;;;;;;6104366;23;20448;-90
2024/02/06 12:58:46;;;;;;;23.92;22.17;;;;;;;;;;6103908;23;20006;-91
2024/02/06 13:01:12;;;;;;;20.75;18.92;;;;;;;;;;6104811;23;20025;-91
2024/02/06 13:03:38;;;;;;;17.00;15.40;;;;;;;;;;6107869;23;20355;-91
2024/02/06 13:06:04;;;;;;;21.23;19.17;;;;;;;;;;6104008;23;20006;-92
2024/02/06 13:08:31;;;;;;;19.05;17.40;;;;;;;;;;6105904;23;20431;-91
2024/02/06 13:11:01;;;;;;;21.08;18.95;;;;;;;;;;6105997;23;20002;-91
2024/02/06 13:13:27;;;;;;;20.85;19.00;;;;;;;;;;6106221;23;20012;-92
2024/02/06 13:16:01;;;;;;;16.58;15.00;;;;;;;;;;6105762;23;20002;-92
2024/02/06 13:18:27;;;;;;;22.73;20.55;;;;;;;;;;6103436;23;20337;-92
2024/02/06 13:21:03;;;;;;;16.67;15.07;;;;;;;;;;6102773;23;20424;-92
2024/02/06 13:23:32;;;;;;;18.88;17.10;;;;;;;;;;6104195;23;20080;-93
2024/02/06 13:25:58;;;;;;;20.92;18.30;;;;;;;;;;6100937;23;20045;-91
2024/02/06 13:28:25;;;;;;;18.92;17.02;;;;;;;;;;6103462;23;20037;-91
2024/02/06 13:30:54;;;;;;;15.50;13.13;;;;;;;;;;6103854;23;20006;-92
2024/02/06 13:33:20;;;;;;;15.48;14.20;;;;;;;;;;6106692;23;20014;-90
2024/02/06 13:35:46;;;;;;;16.52;15.00;;;;;;;;;;6104072;23;20010;-90
2024/02/06 13:45:59;;;;;;;17.48;15.70;;;;;;;;;;6122090;23;20028;-95
2024/02/06 13:48:25;;;;;;;15.32;12.82;;;;;;;;;;6129783;23;20080;-92
2024/02/06 13:50:51;;;;;;;19.52;16.77;;;;;;;;;;6128634;23;20002;-90
2024/02/06 13:55:54;;;;;;;15.32;13.82;;;;;;;;;;6156404;23;20029;-92
2024/02/06 13:58:26;;;;;;;32.28;30.00;;;;;;;;;;6138669;23;20009;-95
2024/02/06 14:00:52;;;;;;;14.57;10.77;;;;;;;;;;6132241;23;20084;-91
2024/02/06 14:03:19;;;;;;;12.73;11.35;;;;;;;;;;6132116;23;20006;-90
2024/02/06 14:05:45;;;;;;;14.93;12.18;;;;;;;;;;6135384;23;20092;-92
2024/02/06 14:08:12;;;;;;;12.45;10.90;;;;;;;;;;6131872;23;20017;-91
2024/02/06 14:10:38;;;;;;;13.75;10.82;;;;;;;;;;6132012;23;20009;-90
2024/02/06 14:13:04;;;;;;;14.77;11.82;;;;;;;;;;6131754;23;20005;-92
2024/02/06 14:15:33;;;;;;;15.02;13.00;;;;;;;;;;6135323;23;20045;-90
2024/02/06 14:17:59;;;;;;;10.55;7.40;;;;;;;;;;6132927;23;20086;-90
2024/02/06 14:20:32;;;;;;;15.57;11.48;;;;;;;;;;6133494;23;20060;-95
2024/02/06 14:22:58;;;;;;;14.57;5.88;;;;;;;;;;6133582;23;20010;-90
2024/02/06 14:25:27;;;;;;;13.88;5.90;;;;;;;;;;6133886;23;20412;-90
2024/02/06 14:31:13;;;;;;;11.50;7.60;;;;;;;;;;6047091;23;20550;-96
2024/02/06 14:34:24;;;;;;;12.18;8.50;;;;;;;;;;6017987;23;20014;-94
2024/02/06 14:37:00;;;;;;;8.18;5.15;;;;;;;;;;5985379;24;20342;-92
2024/02/06 14:39:26;;;;;;;10.80;6.80;;;;;;;;;;5967306;24;20021;-92
2024/02/06 14:41:59;;;;;;;10.95;6.00;;;;;;;;;;6082470;23;20444;-96
2024/02/06 14:44:25;;;;;;;8.70;4.15;;;;;;;;;;6105343;23;20451;-92
2024/02/06 14:47:03;;;;;;;6.38;4.75;;;;;;;;;;6136396;23;20491;-95
2024/02/06 14:49:30;;;;;;;12.93;4.28;;;;;;;;;;6077297;23;20006;-90
2024/02/06 14:54:41;;;;;;;12.07;4.07;;;;;;;;;;6165836;23;20029;-96
2024/02/06 15:00:12;;;;;;;8.00;2.97;;;;;;;;;;6148915;23;20041;-90
2024/02/06 15:06:08;;;;;;;6.10;4.18;;;;;;;;;;6128029;23;20049;-96
2024/02/06 15:08:50;;;;;;;6.18;3.53;;;;;;;;;;6112069;23;20049;-96
2024/02/06 15:11:19;;;;;;;8.60;4.15;;;;;;;;;;6108184;23;20013;-96
2024/02/06 15:21:54;;;;;;;11.32;3.60;;;;;;;;;;6101766;23;20033;-95
2024/02/06 15:24:38;;;;;;;9.55;3.50;;;;;;;;;;6086008;23;20018;-95
2024/02/06 15:29:53;;;;;;;8.32;4.07;;;;;;;;;;6122490;23;20145;-95
2024/02/06 15:35:54;;;;;;;6.13;3.65;;;;;;;;;;6055882;23;20044;-95
2024/02/06 15:43:47;;;;;;;5.82;3.30;;;;;;;;;;6107497;23;20031;-93
2024/02/06 15:46:16;;;;;;;7.97;3.80;;;;;;;;;;6086097;23;20006;-96
2024/02/06 15:48:53;;;;;;;6.22;3.35;;;;;;;;;;6082052;23;20010;-90
2024/02/06 15:52:03;;;;;;;5.93;3.67;;;;;;;;;;6089911;23;20053;-96
2024/02/06 15:58:17;;;;;;;6.03;3.15;;;;;;;;;;5859160;24;20018;-96
2024/02/06 16:00:43;;;;;;;9.48;4.05;;;;;;;;;;5879294;24;20009;-91
2024/02/06 16:06:19;;;;;;;5.20;2.78;;;;;;;;;;6138831;23;20026;-94
2024/02/06 16:08:49;;;;;;;11.13;4.60;;;;;;;;;;6133472;23;20010;-91
2024/02/06 16:11:21;;;;;;;8.38;5.07;;;;;;;;;;6138362;23;20387;-90
2024/02/06 16:13:47;;;;;;;9.88;2.90;;;;;;;;;;6136102;23;20061;-91
2024/02/06 16:16:23;;;;;;;8.57;4.90;;;;;;;;;;6117336;23;20044;-92
2024/02/06 16:18:49;;;;;;;5.55;3.13;;;;;;;;;;6141710;23;20017;-90
2024/02/06 16:21:18;;;;;;;6.18;2.88;;;;;;;;;;6137871;23;20009;-96
2024/02/06 16:23:59;;;;;;;5.45;2.88;;;;;;;;;;6132858;23;20036;-89
2024/02/06 16:26:28;;;;;;;6.05;2.75;;;;;;;;;;6144333;23;20093;-90
2024/02/06 16:28:54;;;;;;;5.32;2.55;;;;;;;;;;6134944;23;20005;-90
2024/02/06 16:31:20;;;;;;;4.10;2.38;;;;;;;;;;6130793;23;20013;-91
2024/02/06 16:33:48;;;;;;;5.68;2.97;;;;;;;;;;6129304;23;20424;-96
2024/02/06 16:36:32;;;;;;;6.38;2.97;;;;;;;;;;6128977;23;20068;-93
2024/02/06 16:39:07;;;;;;;;;;;;;;;;;;6133019;23;20002;-90
2024/02/06 16:41:39;;;;;;;7.00;2.92;;;;;;;;;;6138438;23;20323;-92
2024/02/06 16:44:05;;;;;;;4.95;3.00;;;;;;;;;;6133987;23;20467;-91
2024/02/06 16:46:35;;;;;;;4.72;2.65;;;;;;;;;;6133967;23;20001;-90
2024/02/06 16:49:19;;;;;;;5.35;2.90;;;;;;;;;;6132100;23;20117;-94
2024/02/06 17:00:13;;;;;;;6.07;2.63;;;;;;;;;;6195504;23;20040;-95
2024/02/06 17:02:39;;;;;;;7.93;2.35;;;;;;;;;;6159677;23;20005;-89
2024/02/06 17:05:16;;;;;;;4.07;2.55;;;;;;;;;;6163744;23;20052;-95
2024/02/06 17:08:07;;;;;;;5.47;2.85;;;;;;;;;;6190950;23;20017;-96
2024/02/06 17:13:29;;;;;;;4.57;2.55;;;;;;;;;;6193669;23;20033;-96
2024/02/06 17:18:53;;;;;;;3.63;2.45;;;;;;;;;;6071526;23;20022;-88
2024/02/06 17:24:11;;;;;;;4.53;2.00;;;;;;;;;;6143414;23;20016;-95
2024/02/06 17:26:39;;;;;;;4.90;2.60;;;;;;;;;;6126328;23;20043;-91
2024/02/06 17:34:34;;;;;;;4.10;2.85;;;;;;;;;;6125034;23;20030;-94
2024/02/06 17:37:09;;;;;;;3.83;2.42;;;;;;;;;;6198434;23;20009;-89
2024/02/06 17:39:38;;;;;;;5.93;2.60;;;;;;;;;;6194985;23;20005;-90
2024/02/06 17:42:11;;;;;;;5.13;3.13;;;;;;;;;;6197567;23;20012;-89
2024/02/06 17:44:37;;;;;;;5.80;2.25;;;;;;;;;;6182959;23;20009;-90
2024/02/06 17:47:34;;;;;;;6.25;2.00;;;;;;;;;;6199117;23;20012;-94
2024/02/06 17:50:21;;;;;;;4.93;2.25;;;;;;;;;;6197684;23;20029;-93
2024/02/06 17:53:13;;;;;;;4.57;2.13;;;;;;;;;;6188432;23;22129;-93
2024/02/06 17:55:39;;;;;;;3.20;2.65;;;;;;;;;;6178906;23;20017;-91
2024/02/06 17:58:25;;;;;;;5.53;2.50;;;;;;;;;;6194001;23;20060;-93
2024/02/06 18:00:57;;;;;;;4.55;2.28;;;;;;;;;;6179571;23;20029;-89
2024/02/06 18:03:23;;;;;;;4.03;2.75;;;;;;;;;;6200416;23;20426;-91
2024/02/06 18:06:00;;;;;;;9.40;2.28;;;;;;;;;;6201765;23;20016;-89
2024/02/06 18:08:30;;;;;;;4.57;2.17;;;;;;;;;;6200384;23;20013;-92
2024/02/06 18:13:53;;;;;;;7.85;3.35;;;;;;;;;;6171684;23;20020;-91
2024/02/06 18:19:05;;;;;;;5.75;2.70;;;;;;;;;;6203112;23;20020;-92
2024/02/06 18:21:35;;;;;;;6.55;2.30;;;;;;;;;;6204606;23;20008;-93
2024/02/06 18:24:04;;;;;;;6.53;2.63;;;;;;;;;;6180505;23;20034;-93
2024/02/06 18:26:31;;;;;;;5.25;2.75;;;;;;;;;;6197054;23;20510;-91
2024/02/06 18:28:59;;;;;;;4.78;2.45;;;;;;;;;;6196454;23;20057;-89
2024/02/06 18:31:28;;;;;;;6.72;2.83;;;;;;;;;;6197258;23;20009;-90
2024/02/06 18:34:04;;;;;;;6.75;2.85;;;;;;;;;;6197085;23;20009;-93
2024/02/06 18:39:34;;;;;;;4.70;2.67;;;;;;;;;;6189394;23;20048;-89
2024/02/06 18:42:01;;;;;;;4.32;2.70;;;;;;;;;;6172754;23;20009;-90
2024/02/06 18:44:27;;;;;;;3.95;2.67;;;;;;;;;;6199900;23;20025;-91
2024/02/06 18:52:33;;;;;;;7.43;3.10;;;;;;;;;;6125618;23;20058;-90
2024/02/06 18:58:05;;;;;;;16.27;9.18;;;;;;;;;;6111057;23;20075;-90
2024/02/06 19:00:31;;;;;;;6.88;3.20;;;;;;;;;;6092194;23;20006;-90
2024/02/06 19:02:57;;;;;;;4.95;3.00;;;;;;;;;;6104201;23;20026;-88
2024/02/06 19:05:30;;;;;;;4.82;3.35;;;;;;;;;;6097567;23;20022;-90
2024/02/06 19:10:51;;;;;;;5.93;2.55;;;;;;;;;;6134492;23;20206;-90
2024/02/06 19:15:53;;;;;;;12.27;3.80;;;;;;;;;;6129691;23;20075;-91
2024/02/06 19:18:23;;;;;;;7.80;3.42;;;;;;;;;;6134070;23;20045;-91
2024/02/06 19:20:49;;;;;;;5.13;3.10;;;;;;;;;;6139851;23;20005;-91
2024/02/06 19:23:25;;;;;;;6.07;3.05;;;;;;;;;;6138037;23;20017;-90
2024/02/06 19:25:51;;;;;;;6.75;3.42;;;;;;;;;;6135233;23;20013;-90
2024/02/06 19:28:19;;;;;;;5.50;4.13;;;;;;;;;;6151115;23;20400;-92
2024/02/06 19:31:08;;;;;;;6.18;3.95;;;;;;;;;;6149576;23;20037;-89
2024/02/06 19:33:34;;;;;;;8.98;4.60;;;;;;;;;;6146006;23;20014;-88
2024/02/06 19:36:01;;;;;;;9.95;5.30;;;;;;;;;;6138725;23;20012;-89
2024/02/06 19:41:15;;;;;;;8.13;5.47;;;;;;;;;;6157167;23;20511;-95
2024/02/06 19:43:55;;;;;;;8.63;5.40;;;;;;;;;;6117847;23;20026;-96
2024/02/06 19:46:24;;;;;;;8.75;6.13;;;;;;;;;;6143236;23;20101;-89
2024/02/06 19:48:54;;;;;;;6.75;5.40;;;;;;;;;;6146902;23;20049;-88
2024/02/06 19:51:27;;;;;;;6.25;3.97;;;;;;;;;;6170015;23;20010;-88
2024/02/06 19:53:53;;;;;;;6.63;5.45;;;;;;;;;;6139383;23;20009;-89
2024/02/06 19:56:19;;;;;;;6.25;5.18;;;;;;;;;;6142923;23;20348;-89
2024/02/06 20:03:58;;;;;;;6.32;3.53;;;;;;;;;;6163157;23;20073;-88
2024/02/06 20:06:31;;;;;;;8.20;3.58;;;;;;;;;;6155351;23;20092;-90
2024/02/06 20:09:00;;;;;;;8.52;3.40;;;;;;;;;;6137352;23;20009;-88
2024/02/06 20:11:27;;;;;;;6.82;5.05;;;;;;;;;;6116068;23;20014;-90
2024/02/06 20:13:56;;;;;;;4.88;4.30;;;;;;;;;;6110693;23;19998;-89
2024/02/06 20:16:25;;;;;;;9.40;5.25;;;;;;;;;;6108947;23;20017;-89
2024/02/06 20:18:51;;;;;;;6.53;4.82;;;;;;;;;;6109437;23;20029;-90
2024/02/06 20:21:35;;;;;;;4.90;4.32;;;;;;;;;;6109983;23;20022;-87
2024/02/06 20:24:01;;;;;;;7.80;3.63;;;;;;;;;;6110859;23;20068;-89
2024/02/06 20:26:28;;;;;;;7.22;4.20;;;;;;;;;;6109319;23;20010;-90
2024/02/06 20:28:56;;;;;;;8.38;4.40;;;;;;;;;;6107479;23;20492;-92
2024/02/06 20:31:26;;;;;;;5.90;4.00;;;;;;;;;;6111798;23;19986;-90
2024/02/06 20:33:54;;;;;;;7.50;4.35;;;;;;;;;;6109787;23;20021;-88
2024/02/06 20:36:20;;;;;;;7.57;3.83;;;;;;;;;;6108464;23;20013;-87
2024/02/06 20:38:46;;;;;;;9.15;4.10;;;;;;;;;;6111678;23;20009;-89
2024/02/06 20:41:14;;;;;;;10.50;4.55;;;;;;;;;;6107547;23;20009;-89
2024/02/06 20:43:40;;;;;;;8.45;3.63;;;;;;;;;;6120800;23;20450;-87
2024/02/06 20:46:10;;;;;;;5.93;4.05;;;;;;;;;;6117585;23;19993;-89
2024/02/06 20:49:01;;;;;;;5.88;3.92;;;;;;;;;;6140285;23;20024;-92
2024/02/06 20:51:27;;;;;;;5.18;4.68;;;;;;;;;;6111935;23;20018;-89
2024/02/06 20:53:53;;;;;;;5.47;4.65;;;;;;;;;;6108087;23;20021;-90
2024/02/06 20:56:29;;;;;;;5.10;4.10;;;;;;;;;;6114895;23;20006;-88
2024/02/06 20:59:04;;;;;;;7.68;4.68;;;;;;;;;;6111761;23;20009;-89
2024/02/06 21:01:41;;;;;;;5.47;4.38;;;;;;;;;;6114046;23;20001;-94
2024/02/06 21:04:08;;;;;;;10.18;5.13;;;;;;;;;;6111358;23;20049;-88
2024/02/06 21:06:40;;;;;;;9.60;5.85;;;;;;;;;;6111438;23;20014;-91
2024/02/06 21:09:06;;;;;;;8.98;6.32;;;;;;;;;;6106250;23;20006;-90
2024/02/06 21:11:33;;;;;;;10.02;4.32;;;;;;;;;;6131747;23;20030;-89
2024/02/06 21:13:59;;;;;;;7.25;5.35;;;;;;;;;;6133456;23;20424;-88
2024/02/06 21:16:25;;;;;;;14.05;8.15;;;;;;;;;;6137132;23;20017;-89
2024/02/06 21:18:57;;;;;;;7.85;5.30;;;;;;;;;;6134267;23;20416;-89
2024/02/06 21:21:24;;;;;;;7.60;5.13;;;;;;;;;;6161281;23;20025;-90
2024/02/06 21:23:53;;;;;;;8.60;4.35;;;;;;;;;;6196157;23;20027;-89
2024/02/06 21:26:20;;;;;;;6.60;3.92;;;;;;;;;;6153330;23;20026;-90
2024/02/06 21:28:49;;;;;;;7.97;5.57;;;;;;;;;;6142178;23;20053;-90
2024/02/06 21:31:19;;;;;;;8.15;4.57;;;;;;;;;;6139528;23;20014;-90
2024/02/06 21:33:45;;;;;;;8.27;5.65;;;;;;;;;;6137171;23;20036;-90
2024/02/06 21:36:29;;;;;;;9.43;3.47;;;;;;;;;;6143845;23;19990;-89
2024/02/06 21:41:59;;;;;;;5.18;2.63;;;;;;;;;;6170351;23;20027;-89
2024/02/06 21:44:38;;;;;;;10.50;3.30;;;;;;;;;;6145479;23;20006;-89
2024/02/06 21:47:07;;;;;;;10.85;4.32;;;;;;;;;;6128247;23;20032;-91
2024/02/06 21:49:52;;;;;;;14.32;4.13;;;;;;;;;;6137387;23;19989;-86
2024/02/06 21:52:19;;;;;;;11.68;3.90;;;;;;;;;;6153979;23;20009;-88
2024/02/06 21:54:46;;;;;;;6.57;4.68;;;;;;;;;;6140086;23;20033;-89
2024/02/06 21:57:12;;;;;;;10.18;4.28;;;;;;;;;;6142937;23;20565;-89
2024/02/06 21:59:41;;;;;;;8.52;3.85;;;;;;;;;;6142386;23;20068;-89
2024/02/06 22:02:30;;;;;;;9.02;4.00;;;;;;;;;;6141132;23;20027;-88
2024/02/06 22:04:58;;;;;;;9.10;3.45;;;;;;;;;;6133253;23;20012;-89
2024/02/06 22:10:38;;;;;;;6.35;3.60;;;;;;;;;;6044690;23;20015;-90
2024/02/06 22:13:07;;;;;;;6.00;3.72;;;;;;;;;;6050762;23;20038;-90
2024/02/06 22:18:08;;;;;;;7.53;3.63;;;;;;;;;;6155551;23;20024;-90
2024/02/06 22:20:34;;;;;;;5.53;3.40;;;;;;;;;;6141963;23;20009;-90
2024/02/06 22:23:10;;;;;;;9.05;4.57;;;;;;;;;;6117892;23;20014;-89
2024/02/06 22:25:38;;;;;;;5.93;3.33;;;;;;;;;;6113812;23;20014;-90
2024/02/06 22:28:04;;;;;;;7.47;3.88;;;;;;;;;;6108281;23;20021;-90
2024/02/06 22:30:39;;;;;;;6.78;3.53;;;;;;;;;;6114991;23;19986;-90
2024/02/06 22:36:05;;;;;;;4.47;3.20;;;;;;;;;;6145121;23;20026;-88
2024/02/06 22:38:32;;;;;;;4.10;2.97;;;;;;;;;;6141409;23;19993;-90
2024/02/06 22:41:13;;;;;;;6.57;3.83;;;;;;;;;;6139419;23;20014;-90
2024/02/06 22:43:45;;;;;;;7.40;3.95;;;;;;;;;;6109719;23;20020;-88
2024/02/06 22:46:12;;;;;;;6.32;3.78;;;;;;;;;;6108047;23;20010;-88
2024/02/06 22:48:38;;;;;;;9.07;3.60;;;;;;;;;;6113151;23;20028;-90
2024/02/06 22:51:04;;;;;;;8.32;3.33;;;;;;;;;;6109786;23;20026;-88
2024/02/06 22:56:27;;;;;;;8.77;3.47;;;;;;;;;;6142633;23;20012;-89
2024/02/06 22:58:53;;;;;;;10.38;3.60;;;;;;;;;;6138742;23;20021;-90
2024/02/06 23:01:22;;;;;;;5.22;3.97;;;;;;;;;;6133538;23;20424;-90
2024/02/06 23:03:52;;;;;;;7.30;3.60;;;;;;;;;;6131659;23;20013;-90
2024/02/06 23:06:28;;;;;;;6.28;4.22;;;;;;;;;;6131970;23;20009;-88
2024/02/06 23:08:56;;;;;;;7.05;3.58;;;;;;;;;;6132721;23;20455;-88
2024/02/06 23:11:22;;;;;;;5.05;3.60;;;;;;;;;;6138023;23;20040;-88
2024/02/06 23:13:48;;;;;;;6.28;3.67;;;;;;;;;;6113733;23;20021;-88
2024/02/06 23:16:14;;;;;;;10.25;3.92;;;;;;;;;;6132972;23;20450;-88
2024/02/06 23:18:43;;;;;;;8.63;4.13;;;;;;;;;;6133650;23;20010;-89
2024/02/06 23:23:41;;;;;;;6.28;3.13;;;;;;;;;;6129511;23;20219;-89
2024/02/06 23:26:16;;;;;;;7.00;3.25;;;;;;;;;;6138351;23;20025;-88
2024/02/06 23:28:42;;;;;;;10.80;4.28;;;;;;;;;;6133213;23;20025;-89
2024/02/06 23:31:14;;;;;;;8.55;3.75;;;;;;;;;;6136385;23;19997;-87
2024/02/06 23:33:40;;;;;;;6.53;2.95;;;;;;;;;;6140955;23;20037;-86
2024/02/06 23:36:09;;;;;;;7.28;3.63;;;;;;;;;;6132412;23;20526;-90
2024/02/06 23:38:35;;;;;;;11.40;4.43;;;;;;;;;;6133862;23;20068;-90
2024/02/06 23:43:45;;;;;;;9.00;3.78;;;;;;;;;;6129953;23;20038;-89
2024/02/06 23:46:11;;;;;;;7.10;3.72;;;;;;;;;;6133902;23;20010;-89
2024/02/06 23:48:37;;;;;;;13.13;3.92;;;;;;;;;;6133011;23;20018;-89
2024/02/06 23:51:04;;;;;;;8.55;4.05;;;;;;;;;;6149028;23;20044;-90
2024/02/06 23:53:30;;;;;;;6.72;4.63;;;;;;;;;;6112001;23;20093;-89
2024/02/06 23:55:56;;;;;;;9.98;2.40;;;;;;;;;;6111691;23;20010;-88
2024/02/06 23:58:22;;;;;;;5.57;3.22;;;;;;;;;;6120290;23;20067;-90
